Impacts TAF Board
For situational awareness. Not to be used for flight planning purposes.
IDs:

KBCE - Bryce Canyon Arpt, UT, US

Issued at 1734 UTC 08 Aug 2020
Updated at 2113 UTC 08 Aug 2020
Potential Impact None Slight Moderate High
Time2053Z 08/22Z 08/23Z 09/00Z 09/01Z 09/02Z 09/03Z 09/04Z 09/05Z 09/06Z 09/07Z 09/08Z 09/09Z 09/10Z>>
Type OBS PRVL PRVL PRVL PRVL PRVL PRVL PRVL PRVL PRVL PRVL PRVL PRVL PRVL
VIS 10 >6 >6 >6 >6 >6 >6 >6 >6 >6 >6 >6 >6 >6
CIG -- -- -- -- -- -- -- -- -- -- -- -- -- --
Cover CLR SKC SKC SKC SKC SKC SKC SKC SKC SKC SKC SKC SKC SKC
FltCat VFR VFR VFR VFR VFR VFR VFR VFR VFR VFR VFR VFR VFR VFR
WX -- -- -- -- -- -- -- -- -- -- -- -- -- --
WDir 180 230 230 230 230 270 270 270 270 270 270 270 270 270
WSpd 9 14 14 14 14 6 6 6 6 6 6 6 6 6
WGst 18 22 22 22 22 -- -- -- -- -- -- -- -- --
Raw TAF
KBCE 081734Z 0818/0918 13010G18KT P6SM SKC
  FM081900 23014G22KT P6SM SKC
  FM090200 27006KT P6SM SKC


Raw METAR
KBCE 082053Z AUTO 18009G18KT 10SM CLR 27/M14 A3036 RMK AO2 SLP163 T02671139 57007 $
KBCE 081953Z AUTO 20009G16KT 10SM CLR 27/M11 A3037 RMK AO2 SLP168 T02671111 $
KBCE 081853Z AUTO 20016G22KT 10SM CLR 26/M12 A3038 RMK AO2 PK WND 15026/1803 SLP173 T02561117 $

METAR Board
Radar Display
Forecast Discussion
For situational awareness. Not to be used for flight planning purposes.